Terminal Aerodrome Forecast
Issued by NWS

Home | Current Version | Previous Version | Text Only | Print | Product List | Glossary Off
Versions: 1 2 3 4 5 6 7 8 9 10 11 12 13 14

000
FTUS43 KGRB 281700
TAFCWA
TAF
KCWA 281736Z 2818/2918 33010KT P6SM BKN050
     FM290000 31005KT P6SM SCT100 BKN180
     FM291600 31008KT P6SM SCT050 BKN090=

USA.gov is the U.S. government's official web portal to all federal, state and local government web resources and services.